sensor_id;sensor_type;location;lat;lon;timestamp;P1;durP1;ratioP1;P2;durP2;ratioP2
1020;SDS011;499;42.648;23.270;2024-01-15T00:01:57;26.98;;;17.63;;
1020;SDS011;499;42.648;23.270;2024-01-15T00:05:00;22.23;;;12.30;;
1020;SDS011;499;42.648;23.270;2024-01-15T00:08:05;22.90;;;15.98;;
1020;SDS011;499;42.648;23.270;2024-01-15T00:11:33;23.10;;;14.10;;
1020;SDS011;499;42.648;23.270;2024-01-15T00:14:32;19.20;;;13.02;;
1020;SDS011;499;42.648;23.270;2024-01-15T00:17:30;19.98;;;12.50;;
1020;SDS011;499;42.648;23.270;2024-01-15T00:20:07;25.40;;;12.73;;
1020;SDS011;499;42.648;23.270;2024-01-15T00:22:49;27.45;;;14.45;;
1020;SDS011;499;42.648;23.270;2024-01-15T00:25:46;18.83;;;11.60;;
1020;SDS011;499;42.648;23.270;2024-01-15T00:31:47;26.60;;;13.15;;
1020;SDS011;499;42.648;23.270;2024-01-15T00:34:21;17.42;;;12.35;;
1020;SDS011;499;42.648;23.270;2024-01-15T00:36:55;16.73;;;10.02;;
1020;SDS011;499;42.648;23.270;2024-01-15T00:39:29;21.60;;;13.35;;
1020;SDS011;499;42.648;23.270;2024-01-15T00:42:04;21.10;;;14.52;;
1020;SDS011;499;42.648;23.270;2024-01-15T00:45:04;28.05;;;13.00;;
1020;SDS011;499;42.648;23.270;2024-01-15T00:50:30;27.65;;;15.15;;
1020;SDS011;499;42.648;23.270;2024-01-15T00:53:21;18.88;;;10.40;;
1020;SDS011;499;42.648;23.270;2024-01-15T00:55:50;24.63;;;13.82;;
1020;SDS011;499;42.648;23.270;2024-01-15T00:58:46;21.85;;;14.15;;
1020;SDS011;499;42.648;23.270;2024-01-15T01:01:23;17.60;;;12.82;;
1020;SDS011;499;42.648;23.270;2024-01-15T01:04:06;21.35;;;15.63;;
1020;SDS011;499;42.648;23.270;2024-01-15T01:07:21;21.58;;;13.77;;
1020;SDS011;499;42.648;23.270;2024-01-15T01:10:03;22.13;;;13.13;;
1020;SDS011;499;42.648;23.270;2024-01-15T01:12:44;18.00;;;12.05;;
1020;SDS011;499;42.648;23.270;2024-01-15T01:19:00;15.43;;;11.70;;
1020;SDS011;499;42.648;23.270;2024-01-15T01:21:32;18.20;;;10.02;;
1020;SDS011;499;42.648;23.270;2024-01-15T01:24:33;17.23;;;10.93;;
1020;SDS011;499;42.648;23.270;2024-01-15T01:27:15;15.55;;;10.95;;
1020;SDS011;499;42.648;23.270;2024-01-15T01:29:47;21.60;;;12.77;;
1020;SDS011;499;42.648;23.270;2024-01-15T01:32:25;19.35;;;10.13;;
1020;SDS011;499;42.648;23.270;2024-01-15T01:35:32;17.20;;;10.05;;
1020;SDS011;499;42.648;23.270;2024-01-15T01:38:05;14.30;;;9.38;;
1020;SDS011;499;42.648;23.270;2024-01-15T01:40:38;19.38;;;10.23;;
1020;SDS011;499;42.648;23.270;2024-01-15T01:43:10;16.50;;;11.60;;
1020;SDS011;499;42.648;23.270;2024-01-15T01:45:44;16.80;;;10.73;;
1020;SDS011;499;42.648;23.270;2024-01-15T01:48:28;20.75;;;10.48;;
1020;SDS011;499;42.648;23.270;2024-01-15T01:51:04;19.92;;;11.40;;
1020;SDS011;499;42.648;23.270;2024-01-15T01:53:36;25.20;;;11.50;;
1020;SDS011;499;42.648;23.270;2024-01-15T01:56:48;17.40;;;11.50;;
1020;SDS011;499;42.648;23.270;2024-01-15T01:59:41;20.10;;;12.55;;
1020;SDS011;499;42.648;23.270;2024-01-15T02:02:12;19.40;;;10.90;;
1020;SDS011;499;42.648;23.270;2024-01-15T02:04:52;17.83;;;10.95;;
1020;SDS011;499;42.648;23.270;2024-01-15T02:07:30;21.17;;;12.20;;
1020;SDS011;499;42.648;23.270;2024-01-15T02:10:01;21.83;;;11.38;;
1020;SDS011;499;42.648;23.270;2024-01-15T02:12:36;20.70;;;11.20;;
1020;SDS011;499;42.648;23.270;2024-01-15T02:15:14;21.15;;;11.60;;
1020;SDS011;499;42.648;23.270;2024-01-15T02:17:58;16.45;;;11.35;;
1020;SDS011;499;42.648;23.270;2024-01-15T02:20:50;19.00;;;11.38;;
1020;SDS011;499;42.648;23.270;2024-01-15T02:23:26;21.83;;;13.48;;
1020;SDS011;499;42.648;23.270;2024-01-15T02:25:59;30.02;;;14.45;;
1020;SDS011;499;42.648;23.270;2024-01-15T02:28:33;21.55;;;12.55;;
1020;SDS011;499;42.648;23.270;2024-01-15T02:31:12;12.73;;;10.23;;
1020;SDS011;499;42.648;23.270;2024-01-15T02:33:55;13.85;;;9.27;;
1020;SDS011;499;42.648;23.270;2024-01-15T02:36:46;14.60;;;9.98;;
1020;SDS011;499;42.648;23.270;2024-01-15T02:39:20;23.92;;;11.57;;
1020;SDS011;499;42.648;23.270;2024-01-15T02:41:54;19.00;;;10.27;;
1020;SDS011;499;42.648;23.270;2024-01-15T02:44:24;20.83;;;14.35;;
1020;SDS011;499;42.648;23.270;2024-01-15T02:47:00;16.48;;;11.18;;
1020;SDS011;499;42.648;23.270;2024-01-15T02:49:32;17.08;;;11.75;;
1020;SDS011;499;42.648;23.270;2024-01-15T02:52:05;22.77;;;11.02;;
1020;SDS011;499;42.648;23.270;2024-01-15T02:54:37;15.10;;;9.73;;
1020;SDS011;499;42.648;23.270;2024-01-15T02:57:06;14.38;;;11.30;;
1020;SDS011;499;42.648;23.270;2024-01-15T02:59:39;18.75;;;12.70;;
1020;SDS011;499;42.648;23.270;2024-01-15T03:02:13;18.33;;;11.05;;
1020;SDS011;499;42.648;23.270;2024-01-15T03:04:42;14.38;;;9.60;;
1020;SDS011;499;42.648;23.270;2024-01-15T03:07:13;17.52;;;11.25;;
1020;SDS011;499;42.648;23.270;2024-01-15T03:09:47;19.80;;;11.95;;
1020;SDS011;499;42.648;23.270;2024-01-15T03:12:22;18.08;;;11.23;;
1020;SDS011;499;42.648;23.270;2024-01-15T03:14:52;59.67;;;35.42;;
1020;SDS011;499;42.648;23.270;2024-01-15T03:17:26;34.63;;;22.80;;
1020;SDS011;499;42.648;23.270;2024-01-15T03:19:56;24.63;;;15.02;;
1020;SDS011;499;42.648;23.270;2024-01-15T03:22:34;12.70;;;10.98;;
1020;SDS011;499;42.648;23.270;2024-01-15T03:25:26;16.27;;;12.25;;
1020;SDS011;499;42.648;23.270;2024-01-15T03:28:04;16.60;;;11.73;;
1020;SDS011;499;42.648;23.270;2024-01-15T03:30:35;19.55;;;12.15;;
1020;SDS011;499;42.648;23.270;2024-01-15T03:33:06;15.10;;;9.65;;
1020;SDS011;499;42.648;23.270;2024-01-15T03:35:38;15.52;;;9.82;;
1020;SDS011;499;42.648;23.270;2024-01-15T03:38:14;16.02;;;8.73;;
1020;SDS011;499;42.648;23.270;2024-01-15T03:40:46;15.30;;;8.63;;
1020;SDS011;499;42.648;23.270;2024-01-15T03:43:17;17.33;;;9.65;;
1020;SDS011;499;42.648;23.270;2024-01-15T03:46:14;14.90;;;10.07;;
1020;SDS011;499;42.648;23.270;2024-01-15T03:49:10;12.95;;;9.20;;
1020;SDS011;499;42.648;23.270;2024-01-15T03:51:55;17.05;;;10.45;;
1020;SDS011;499;42.648;23.270;2024-01-15T03:55:40;25.70;;;13.57;;
1020;SDS011;499;42.648;23.270;2024-01-15T03:59:04;17.42;;;11.38;;
1020;SDS011;499;42.648;23.270;2024-01-15T04:02:11;19.50;;;10.98;;
1020;SDS011;499;42.648;23.270;2024-01-15T04:04:54;12.88;;;8.35;;
1020;SDS011;499;42.648;23.270;2024-01-15T04:07:42;12.45;;;8.55;;
1020;SDS011;499;42.648;23.270;2024-01-15T04:10:13;17.90;;;11.00;;
1020;SDS011;499;42.648;23.270;2024-01-15T04:12:48;14.15;;;9.05;;
1020;SDS011;499;42.648;23.270;2024-01-15T04:15:21;18.98;;;8.50;;
1020;SDS011;499;42.648;23.270;2024-01-15T04:18:00;13.23;;;7.65;;
1020;SDS011;499;42.648;23.270;2024-01-15T04:20:33;16.77;;;7.03;;
1020;SDS011;499;42.648;23.270;2024-01-15T04:23:17;12.38;;;8.27;;
1020;SDS011;499;42.648;23.270;2024-01-15T04:25:46;12.90;;;7.68;;
1020;SDS011;499;42.648;23.270;2024-01-15T04:28:40;40.95;;;17.38;;
1020;SDS011;499;42.648;23.270;2024-01-15T04:31:25;20.90;;;11.75;;
1020;SDS011;499;42.648;23.270;2024-01-15T04:34:08;15.35;;;8.75;;
1020;SDS011;499;42.648;23.270;2024-01-15T04:36:39;11.00;;;7.63;;
1020;SDS011;499;42.648;23.270;2024-01-15T04:39:13;7.55;;;5.88;;
1020;SDS011;499;42.648;23.270;2024-01-15T04:41:47;11.13;;;7.13;;
1020;SDS011;499;42.648;23.270;2024-01-15T04:44:22;15.00;;;8.32;;
1020;SDS011;499;42.648;23.270;2024-01-15T04:46:53;7.30;;;5.35;;
1020;SDS011;499;42.648;23.270;2024-01-15T04:49:30;11.40;;;7.55;;
1020;SDS011;499;42.648;23.270;2024-01-15T04:52:06;15.43;;;6.10;;
1020;SDS011;499;42.648;23.270;2024-01-15T04:54:37;8.50;;;6.45;;
1020;SDS011;499;42.648;23.270;2024-01-15T04:57:09;7.45;;;5.50;;
1020;SDS011;499;42.648;23.270;2024-01-15T04:59:48;6.93;;;5.13;;
1020;SDS011;499;42.648;23.270;2024-01-15T05:02:26;13.13;;;9.50;;
1020;SDS011;499;42.648;23.270;2024-01-15T05:04:59;8.30;;;5.20;;
1020;SDS011;499;42.648;23.270;2024-01-15T05:07:30;7.03;;;6.03;;
1020;SDS011;499;42.648;23.270;2024-01-15T05:10:03;9.93;;;6.57;;
1020;SDS011;499;42.648;23.270;2024-01-15T05:12:43;14.30;;;9.45;;
1020;SDS011;499;42.648;23.270;2024-01-15T05:15:21;13.80;;;8.07;;
1020;SDS011;499;42.648;23.270;2024-01-15T05:17:53;11.63;;;10.02;;
1020;SDS011;499;42.648;23.270;2024-01-15T05:20:21;13.02;;;8.88;;
1020;SDS011;499;42.648;23.270;2024-01-15T05:22:51;10.45;;;8.40;;
1020;SDS011;499;42.648;23.270;2024-01-15T05:25:26;16.27;;;10.05;;
1020;SDS011;499;42.648;23.270;2024-01-15T05:27:58;11.35;;;9.45;;
1020;SDS011;499;42.648;23.270;2024-01-15T05:30:37;14.73;;;8.77;;
1020;SDS011;499;42.648;23.270;2024-01-15T05:33:14;16.95;;;9.43;;
1020;SDS011;499;42.648;23.270;2024-01-15T05:35:56;13.27;;;9.10;;
1020;SDS011;499;42.648;23.270;2024-01-15T05:38:40;12.77;;;8.88;;
1020;SDS011;499;42.648;23.270;2024-01-15T05:41:21;10.43;;;8.15;;
1020;SDS011;499;42.648;23.270;2024-01-15T05:43:58;7.88;;;6.03;;
1020;SDS011;499;42.648;23.270;2024-01-15T05:46:43;18.23;;;11.45;;
1020;SDS011;499;42.648;23.270;2024-01-15T05:49:27;13.82;;;8.90;;
1020;SDS011;499;42.648;23.270;2024-01-15T05:51:57;21.75;;;17.33;;
1020;SDS011;499;42.648;23.270;2024-01-15T05:54:27;19.02;;;12.32;;
1020;SDS011;499;42.648;23.270;2024-01-15T05:57:00;26.90;;;14.93;;
1020;SDS011;499;42.648;23.270;2024-01-15T05:59:42;20.52;;;12.23;;
1020;SDS011;499;42.648;23.270;2024-01-15T06:02:22;13.27;;;9.00;;
1020;SDS011;499;42.648;23.270;2024-01-15T06:05:03;14.27;;;9.85;;
1020;SDS011;499;42.648;23.270;2024-01-15T06:07:44;59.47;;;32.90;;
1020;SDS011;499;42.648;23.270;2024-01-15T06:10:24;42.20;;;24.25;;
1020;SDS011;499;42.648;23.270;2024-01-15T06:12:55;26.27;;;16.08;;
1020;SDS011;499;42.648;23.270;2024-01-15T06:15:33;16.88;;;10.60;;
1020;SDS011;499;42.648;23.270;2024-01-15T06:18:10;17.88;;;13.20;;
1020;SDS011;499;42.648;23.270;2024-01-15T06:20:42;21.33;;;10.05;;
1020;SDS011;499;42.648;23.270;2024-01-15T06:23:13;16.30;;;9.43;;
1020;SDS011;499;42.648;23.270;2024-01-15T06:25:41;14.95;;;7.85;;
1020;SDS011;499;42.648;23.270;2024-01-15T06:28:10;12.05;;;7.80;;
1020;SDS011;499;42.648;23.270;2024-01-15T06:30:39;10.48;;;7.25;;
1020;SDS011;499;42.648;23.270;2024-01-15T06:33:14;8.20;;;6.55;;
1020;SDS011;499;42.648;23.270;2024-01-15T06:35:53;13.52;;;6.40;;
1020;SDS011;499;42.648;23.270;2024-01-15T06:38:28;9.95;;;7.72;;
1020;SDS011;499;42.648;23.270;2024-01-15T06:40:56;19.42;;;11.00;;
1020;SDS011;499;42.648;23.270;2024-01-15T06:43:24;19.80;;;11.25;;
1020;SDS011;499;42.648;23.270;2024-01-15T06:46:04;20.30;;;12.98;;
1020;SDS011;499;42.648;23.270;2024-01-15T06:49:01;25.52;;;15.85;;
1020;SDS011;499;42.648;23.270;2024-01-15T06:51:36;21.52;;;14.60;;
1020;SDS011;499;42.648;23.270;2024-01-15T06:54:08;20.10;;;13.82;;
1020;SDS011;499;42.648;23.270;2024-01-15T06:56:37;19.48;;;13.13;;
1020;SDS011;499;42.648;23.270;2024-01-15T06:59:08;21.88;;;13.98;;
1020;SDS011;499;42.648;23.270;2024-01-15T07:01:39;15.02;;;10.18;;
1020;SDS011;499;42.648;23.270;2024-01-15T07:04:16;20.65;;;11.05;;
1020;SDS011;499;42.648;23.270;2024-01-15T07:07:05;11.48;;;9.15;;
1020;SDS011;499;42.648;23.270;2024-01-15T07:09:33;15.65;;;11.30;;
1020;SDS011;499;42.648;23.270;2024-01-15T07:12:02;14.90;;;11.13;;
1020;SDS011;499;42.648;23.270;2024-01-15T07:14:33;19.23;;;12.05;;
1020;SDS011;499;42.648;23.270;2024-01-15T07:17:11;21.25;;;12.57;;
1020;SDS011;499;42.648;23.270;2024-01-15T07:19:45;19.85;;;12.07;;
1020;SDS011;499;42.648;23.270;2024-01-15T07:22:15;20.58;;;11.80;;
1020;SDS011;499;42.648;23.270;2024-01-15T07:25:03;20.17;;;15.50;;
1020;SDS011;499;42.648;23.270;2024-01-15T07:27:37;26.75;;;19.10;;
1020;SDS011;499;42.648;23.270;2024-01-15T07:30:19;29.75;;;19.65;;
1020;SDS011;499;42.648;23.270;2024-01-15T07:32:57;29.65;;;21.38;;
1020;SDS011;499;42.648;23.270;2024-01-15T07:35:39;30.98;;;19.73;;
1020;SDS011;499;42.648;23.270;2024-01-15T07:38:07;17.40;;;13.35;;
1020;SDS011;499;42.648;23.270;2024-01-15T07:40:37;33.03;;;16.98;;
1020;SDS011;499;42.648;23.270;2024-01-15T07:43:07;27.50;;;17.02;;
1020;SDS011;499;42.648;23.270;2024-01-15T07:45:38;23.65;;;16.77;;
1020;SDS011;499;42.648;23.270;2024-01-15T07:48:14;32.03;;;20.70;;
1020;SDS011;499;42.648;23.270;2024-01-15T07:50:49;36.35;;;19.77;;
1020;SDS011;499;42.648;23.270;2024-01-15T07:53:25;27.67;;;17.90;;
1020;SDS011;499;42.648;23.270;2024-01-15T07:56:01;25.63;;;18.27;;
1020;SDS011;499;42.648;23.270;2024-01-15T07:58:31;27.58;;;17.92;;
1020;SDS011;499;42.648;23.270;2024-01-15T08:01:01;32.03;;;18.25;;
1020;SDS011;499;42.648;23.270;2024-01-15T08:03:33;25.35;;;18.50;;
1020;SDS011;499;42.648;23.270;2024-01-15T08:06:14;26.77;;;20.30;;
1020;SDS011;499;42.648;23.270;2024-01-15T08:09:11;32.22;;;20.13;;
1020;SDS011;499;42.648;23.270;2024-01-15T08:11:48;26.55;;;17.08;;
1020;SDS011;499;42.648;23.270;2024-01-15T08:14:30;22.42;;;14.48;;
1020;SDS011;499;42.648;23.270;2024-01-15T08:17:01;28.20;;;15.05;;
1020;SDS011;499;42.648;23.270;2024-01-15T08:19:46;26.40;;;16.27;;
1020;SDS011;499;42.648;23.270;2024-01-15T08:22:20;26.92;;;19.30;;
1020;SDS011;499;42.648;23.270;2024-01-15T08:24:51;33.80;;;19.52;;
1020;SDS011;499;42.648;23.270;2024-01-15T08:27:21;24.40;;;18.10;;
1020;SDS011;499;42.648;23.270;2024-01-15T08:30:13;29.73;;;18.65;;
1020;SDS011;499;42.648;23.270;2024-01-15T08:32:44;21.65;;;15.40;;
1020;SDS011;499;42.648;23.270;2024-01-15T08:35:15;30.83;;;20.02;;
1020;SDS011;499;42.648;23.270;2024-01-15T08:38:07;36.55;;;21.25;;
1020;SDS011;499;42.648;23.270;2024-01-15T08:40:37;39.03;;;23.85;;
1020;SDS011;499;42.648;23.270;2024-01-15T08:43:06;40.80;;;22.50;;
1020;SDS011;499;42.648;23.270;2024-01-15T08:45:36;35.88;;;21.40;;
1020;SDS011;499;42.648;23.270;2024-01-15T08:48:08;33.58;;;19.50;;
1020;SDS011;499;42.648;23.270;2024-01-15T08:50:39;35.88;;;22.08;;
1020;SDS011;499;42.648;23.270;2024-01-15T08:53:22;38.87;;;23.73;;
1020;SDS011;499;42.648;23.270;2024-01-15T08:55:59;45.05;;;28.23;;
1020;SDS011;499;42.648;23.270;2024-01-15T08:58:32;33.28;;;20.58;;
1020;SDS011;499;42.648;23.270;2024-01-15T09:01:04;39.73;;;23.23;;
1020;SDS011;499;42.648;23.270;2024-01-15T09:03:42;42.13;;;23.37;;
1020;SDS011;499;42.648;23.270;2024-01-15T09:06:24;43.83;;;26.53;;
1020;SDS011;499;42.648;23.270;2024-01-15T09:08:56;41.40;;;26.90;;
1020;SDS011;499;42.648;23.270;2024-01-15T09:11:28;39.70;;;26.13;;
1020;SDS011;499;42.648;23.270;2024-01-15T09:13:57;39.23;;;24.73;;
1020;SDS011;499;42.648;23.270;2024-01-15T09:16:26;40.20;;;25.67;;
1020;SDS011;499;42.648;23.270;2024-01-15T09:18:55;23.90;;;19.83;;
1020;SDS011;499;42.648;23.270;2024-01-15T09:21:24;29.40;;;18.00;;
1020;SDS011;499;42.648;23.270;2024-01-15T09:24:08;30.53;;;19.37;;
1020;SDS011;499;42.648;23.270;2024-01-15T09:26:37;24.27;;;15.40;;
1020;SDS011;499;42.648;23.270;2024-01-15T09:29:10;20.37;;;13.87;;
1020;SDS011;499;42.648;23.270;2024-01-15T09:31:42;13.37;;;10.50;;
1020;SDS011;499;42.648;23.270;2024-01-15T09:34:26;17.43;;;11.60;;
1020;SDS011;499;42.648;23.270;2024-01-15T09:36:55;16.70;;;10.93;;
1020;SDS011;499;42.648;23.270;2024-01-15T09:39:30;20.00;;;10.47;;
1020;SDS011;499;42.648;23.270;2024-01-15T09:42:01;16.17;;;11.00;;
1020;SDS011;499;42.648;23.270;2024-01-15T09:44:40;22.87;;;14.90;;
1020;SDS011;499;42.648;23.270;2024-01-15T09:47:11;21.87;;;15.57;;
1020;SDS011;499;42.648;23.270;2024-01-15T09:49:44;23.33;;;17.90;;
1020;SDS011;499;42.648;23.270;2024-01-15T09:52:15;26.37;;;18.40;;
1020;SDS011;499;42.648;23.270;2024-01-15T09:55:02;23.93;;;15.90;;
1020;SDS011;499;42.648;23.270;2024-01-15T09:57:44;23.60;;;15.63;;
1020;SDS011;499;42.648;23.270;2024-01-15T10:00:24;33.07;;;17.70;;
1020;SDS011;499;42.648;23.270;2024-01-15T10:03:03;21.50;;;13.93;;
1020;SDS011;499;42.648;23.270;2024-01-15T10:05:37;22.87;;;14.30;;
1020;SDS011;499;42.648;23.270;2024-01-15T10:08:08;20.13;;;14.37;;
1020;SDS011;499;42.648;23.270;2024-01-15T10:10:41;29.40;;;14.60;;
1020;SDS011;499;42.648;23.270;2024-01-15T10:13:09;25.20;;;16.33;;
1020;SDS011;499;42.648;23.270;2024-01-15T10:15:39;23.87;;;16.23;;
1020;SDS011;499;42.648;23.270;2024-01-15T10:18:08;27.03;;;18.17;;
1020;SDS011;499;42.648;23.270;2024-01-15T10:20:40;35.53;;;19.20;;
1020;SDS011;499;42.648;23.270;2024-01-15T10:23:14;27.30;;;18.13;;
1020;SDS011;499;42.648;23.270;2024-01-15T10:25:46;29.50;;;19.83;;
1020;SDS011;499;42.648;23.270;2024-01-15T10:28:14;34.40;;;21.07;;
1020;SDS011;499;42.648;23.270;2024-01-15T10:30:43;29.60;;;20.93;;
1020;SDS011;499;42.648;23.270;2024-01-15T10:33:13;19.83;;;15.43;;
1020;SDS011;499;42.648;23.270;2024-01-15T10:35:56;24.03;;;15.17;;
1020;SDS011;499;42.648;23.270;2024-01-15T10:38:44;29.63;;;17.40;;
1020;SDS011;499;42.648;23.270;2024-01-15T10:41:25;31.40;;;18.07;;
1020;SDS011;499;42.648;23.270;2024-01-15T10:43:56;28.67;;;17.37;;
1020;SDS011;499;42.648;23.270;2024-01-15T10:46:33;28.63;;;19.70;;
1020;SDS011;499;42.648;23.270;2024-01-15T10:49:20;31.90;;;21.43;;
1020;SDS011;499;42.648;23.270;2024-01-15T10:51:56;24.07;;;16.97;;
1020;SDS011;499;42.648;23.270;2024-01-15T10:54:25;30.10;;;19.20;;
1020;SDS011;499;42.648;23.270;2024-01-15T10:57:10;33.07;;;18.43;;
1020;SDS011;499;42.648;23.270;2024-01-15T10:59:42;33.57;;;22.00;;
1020;SDS011;499;42.648;23.270;2024-01-15T11:02:17;38.80;;;23.30;;
1020;SDS011;499;42.648;23.270;2024-01-15T11:04:48;40.17;;;24.77;;
1020;SDS011;499;42.648;23.270;2024-01-15T11:07:17;52.40;;;28.53;;
1020;SDS011;499;42.648;23.270;2024-01-15T11:09:51;34.53;;;23.93;;
1020;SDS011;499;42.648;23.270;2024-01-15T11:12:29;40.53;;;27.87;;
1020;SDS011;499;42.648;23.270;2024-01-15T11:15:04;38.93;;;24.70;;
1020;SDS011;499;42.648;23.270;2024-01-15T11:20:41;42.40;;;30.53;;
1020;SDS011;499;42.648;23.270;2024-01-15T11:24:09;52.17;;;32.10;;
1020;SDS011;499;42.648;23.270;2024-01-15T11:27:06;45.10;;;30.00;;
1020;SDS011;499;42.648;23.270;2024-01-15T11:30:11;43.10;;;30.03;;
1020;SDS011;499;42.648;23.270;2024-01-15T11:32:41;44.67;;;29.90;;
1020;SDS011;499;42.648;23.270;2024-01-15T11:35:22;44.70;;;30.40;;
1020;SDS011;499;42.648;23.270;2024-01-15T11:38:26;42.93;;;30.60;;
1020;SDS011;499;42.648;23.270;2024-01-15T11:41:12;44.03;;;30.20;;
1020;SDS011;499;42.648;23.270;2024-01-15T11:43:41;44.97;;;29.00;;
1020;SDS011;499;42.648;23.270;2024-01-15T11:46:19;37.80;;;27.47;;
1020;SDS011;499;42.648;23.270;2024-01-15T11:48:54;42.00;;;29.43;;
1020;SDS011;499;42.648;23.270;2024-01-15T11:51:31;40.23;;;27.80;;
1020;SDS011;499;42.648;23.270;2024-01-15T11:54:00;32.60;;;27.80;;
1020;SDS011;499;42.648;23.270;2024-01-15T11:56:36;41.70;;;28.57;;
1020;SDS011;499;42.648;23.270;2024-01-15T11:59:05;43.43;;;29.80;;
1020;SDS011;499;42.648;23.270;2024-01-15T12:01:38;39.73;;;27.70;;
1020;SDS011;499;42.648;23.270;2024-01-15T12:04:06;44.20;;;29.37;;
1020;SDS011;499;42.648;23.270;2024-01-15T12:06:37;36.70;;;24.83;;
1020;SDS011;499;42.648;23.270;2024-01-15T12:09:10;29.30;;;22.00;;
1020;SDS011;499;42.648;23.270;2024-01-15T12:11:54;33.90;;;23.23;;
1020;SDS011;499;42.648;23.270;2024-01-15T12:14:32;38.27;;;23.93;;
1020;SDS011;499;42.648;23.270;2024-01-15T12:17:05;44.90;;;29.50;;
1020;SDS011;499;42.648;23.270;2024-01-15T12:19:44;50.10;;;32.43;;
1020;SDS011;499;42.648;23.270;2024-01-15T12:22:19;38.57;;;27.00;;
1020;SDS011;499;42.648;23.270;2024-01-15T12:24:49;46.47;;;29.23;;
1020;SDS011;499;42.648;23.270;2024-01-15T12:27:27;47.60;;;30.67;;
1020;SDS011;499;42.648;23.270;2024-01-15T12:29:58;46.80;;;32.37;;
1020;SDS011;499;42.648;23.270;2024-01-15T12:32:51;40.63;;;26.70;;
1020;SDS011;499;42.648;23.270;2024-01-15T12:35:20;37.00;;;28.53;;
1020;SDS011;499;42.648;23.270;2024-01-15T12:37:49;38.00;;;25.57;;
1020;SDS011;499;42.648;23.270;2024-01-15T12:40:24;34.53;;;23.23;;
1020;SDS011;499;42.648;23.270;2024-01-15T12:43:08;38.30;;;23.70;;
1020;SDS011;499;42.648;23.270;2024-01-15T12:45:41;25.13;;;15.37;;
1020;SDS011;499;42.648;23.270;2024-01-15T12:48:19;24.43;;;16.73;;
1020;SDS011;499;42.648;23.270;2024-01-15T12:50:55;27.83;;;17.27;;
1020;SDS011;499;42.648;23.270;2024-01-15T12:53:56;25.53;;;17.37;;
1020;SDS011;499;42.648;23.270;2024-01-15T12:56:27;25.83;;;17.17;;
1020;SDS011;499;42.648;23.270;2024-01-15T12:59:03;34.13;;;22.70;;
1020;SDS011;499;42.648;23.270;2024-01-15T13:01:32;38.57;;;25.77;;
1020;SDS011;499;42.648;23.270;2024-01-15T13:04:14;36.67;;;26.07;;
1020;SDS011;499;42.648;23.270;2024-01-15T13:07:00;38.10;;;23.97;;
1020;SDS011;499;42.648;23.270;2024-01-15T13:09:36;39.70;;;25.67;;
1020;SDS011;499;42.648;23.270;2024-01-15T13:12:07;43.90;;;21.40;;
1020;SDS011;499;42.648;23.270;2024-01-15T13:14:39;35.87;;;23.73;;
1020;SDS011;499;42.648;23.270;2024-01-15T13:17:27;34.13;;;24.27;;
1020;SDS011;499;42.648;23.270;2024-01-15T13:20:53;39.20;;;25.53;;
1020;SDS011;499;42.648;23.270;2024-01-15T13:23:48;35.00;;;25.70;;
1020;SDS011;499;42.648;23.270;2024-01-15T13:26:20;41.07;;;28.23;;
1020;SDS011;499;42.648;23.270;2024-01-15T13:28:50;41.63;;;28.60;;
1020;SDS011;499;42.648;23.270;2024-01-15T13:31:26;46.57;;;32.40;;
1020;SDS011;499;42.648;23.270;2024-01-15T13:33:57;32.13;;;22.77;;
1020;SDS011;499;42.648;23.270;2024-01-15T13:36:33;28.80;;;22.40;;
1020;SDS011;499;42.648;23.270;2024-01-15T13:39:00;21.43;;;16.00;;
1020;SDS011;499;42.648;23.270;2024-01-15T13:41:29;28.90;;;23.37;;
1020;SDS011;499;42.648;23.270;2024-01-15T13:44:00;35.23;;;23.73;;
1020;SDS011;499;42.648;23.270;2024-01-15T13:46:31;36.20;;;26.70;;
1020;SDS011;499;42.648;23.270;2024-01-15T13:49:04;33.20;;;24.43;;
1020;SDS011;499;42.648;23.270;2024-01-15T13:58:40;40.90;;;26.30;;
1020;SDS011;499;42.648;23.270;2024-01-15T14:01:56;39.17;;;24.13;;
1020;SDS011;499;42.648;23.270;2024-01-15T14:04:37;43.57;;;28.10;;
1020;SDS011;499;42.648;23.270;2024-01-15T14:07:54;46.73;;;30.33;;
1020;SDS011;499;42.648;23.270;2024-01-15T14:11:01;41.13;;;27.27;;
1020;SDS011;499;42.648;23.270;2024-01-15T14:14:36;34.50;;;26.23;;
1020;SDS011;499;42.648;23.270;2024-01-15T14:17:09;35.67;;;24.50;;
1020;SDS011;499;42.648;23.270;2024-01-15T14:19:55;36.13;;;23.87;;
1020;SDS011;499;42.648;23.270;2024-01-15T14:22:38;37.37;;;27.17;;
1020;SDS011;499;42.648;23.270;2024-01-15T14:25:23;43.60;;;26.33;;
1020;SDS011;499;42.648;23.270;2024-01-15T14:27:54;46.17;;;29.47;;
1020;SDS011;499;42.648;23.270;2024-01-15T14:31:06;48.27;;;30.17;;
1020;SDS011;499;42.648;23.270;2024-01-15T14:33:46;44.93;;;31.43;;
1020;SDS011;499;42.648;23.270;2024-01-15T14:36:21;43.97;;;30.60;;
1020;SDS011;499;42.648;23.270;2024-01-15T14:38:54;46.20;;;33.93;;
1020;SDS011;499;42.648;23.270;2024-01-15T14:41:32;33.03;;;24.67;;
1020;SDS011;499;42.648;23.270;2024-01-15T14:44:08;35.07;;;26.97;;
1020;SDS011;499;42.648;23.270;2024-01-15T14:46:50;31.70;;;24.10;;
1020;SDS011;499;42.648;23.270;2024-01-15T14:49:55;32.43;;;23.40;;
1020;SDS011;499;42.648;23.270;2024-01-15T14:52:56;32.50;;;21.60;;
1020;SDS011;499;42.648;23.270;2024-01-15T14:55:56;30.50;;;22.13;;
1020;SDS011;499;42.648;23.270;2024-01-15T14:58:39;30.50;;;20.67;;
1020;SDS011;499;42.648;23.270;2024-01-15T15:02:02;30.23;;;22.37;;
1020;SDS011;499;42.648;23.270;2024-01-15T15:05:07;38.97;;;23.20;;
1020;SDS011;499;42.648;23.270;2024-01-15T15:07:49;43.17;;;30.80;;
1020;SDS011;499;42.648;23.270;2024-01-15T15:10:58;40.30;;;28.40;;
1020;SDS011;499;42.648;23.270;2024-01-15T15:13:46;28.60;;;19.47;;
1020;SDS011;499;42.648;23.270;2024-01-15T15:16:45;31.20;;;17.80;;
1020;SDS011;499;42.648;23.270;2024-01-15T15:23:15;27.70;;;18.47;;
1020;SDS011;499;42.648;23.270;2024-01-15T15:26:05;27.80;;;18.00;;
1020;SDS011;499;42.648;23.270;2024-01-15T15:28:33;29.17;;;21.07;;
1020;SDS011;499;42.648;23.270;2024-01-15T15:31:08;34.00;;;23.23;;
1020;SDS011;499;42.648;23.270;2024-01-15T15:33:56;31.37;;;21.00;;
1020;SDS011;499;42.648;23.270;2024-01-15T15:36:52;67.93;;;34.93;;
1020;SDS011;499;42.648;23.270;2024-01-15T15:39:48;31.67;;;20.47;;
1020;SDS011;499;42.648;23.270;2024-01-15T15:42:24;25.23;;;15.10;;
1020;SDS011;499;42.648;23.270;2024-01-15T15:45:25;25.93;;;17.13;;
1020;SDS011;499;42.648;23.270;2024-01-15T15:48:16;16.13;;;11.67;;
1020;SDS011;499;42.648;23.270;2024-01-15T15:50:57;19.33;;;13.50;;
1020;SDS011;499;42.648;23.270;2024-01-15T15:53:28;17.03;;;12.97;;
1020;SDS011;499;42.648;23.270;2024-01-15T15:56:00;18.57;;;12.97;;
1020;SDS011;499;42.648;23.270;2024-01-15T15:58:29;62.17;;;38.10;;
1020;SDS011;499;42.648;23.270;2024-01-15T16:01:06;37.10;;;20.83;;
1020;SDS011;499;42.648;23.270;2024-01-15T16:03:39;42.63;;;25.80;;
1020;SDS011;499;42.648;23.270;2024-01-15T16:06:13;116.20;;;57.43;;
1020;SDS011;499;42.648;23.270;2024-01-15T16:08:42;77.90;;;46.00;;
1020;SDS011;499;42.648;23.270;2024-01-15T16:11:14;78.80;;;43.53;;
1020;SDS011;499;42.648;23.270;2024-01-15T16:13:44;43.47;;;30.17;;
1020;SDS011;499;42.648;23.270;2024-01-15T16:16:27;26.57;;;18.23;;
1020;SDS011;499;42.648;23.270;2024-01-15T16:18:56;26.60;;;16.70;;
1020;SDS011;499;42.648;23.270;2024-01-15T16:21:27;29.20;;;19.60;;
1020;SDS011;499;42.648;23.270;2024-01-15T16:24:05;28.70;;;22.23;;
1020;SDS011;499;42.648;23.270;2024-01-15T16:26:58;21.40;;;16.67;;